sensor_id;sensor_type;location;lat;lon;timestamp;P1;durP1;ratioP1;P2;durP2;ratioP2
51828;SDS011;37881;48.024;8.774;2023-04-01T00:01:25;3.17;;;1.20;;
51828;SDS011;37881;48.024;8.774;2023-04-01T00:03:52;3.08;;;1.00;;
51828;SDS011;37881;48.024;8.774;2023-04-01T00:06:20;2.90;;;1.23;;
51828;SDS011;37881;48.024;8.774;2023-04-01T00:08:47;2.85;;;1.08;;
51828;SDS011;37881;48.024;8.774;2023-04-01T00:11:14;2.38;;;0.95;;
51828;SDS011;37881;48.024;8.774;2023-04-01T00:13:41;2.13;;;0.70;;
51828;SDS011;37881;48.024;8.774;2023-04-01T00:16:08;2.55;;;1.30;;
51828;SDS011;37881;48.024;8.774;2023-04-01T00:18:47;2.20;;;0.90;;
51828;SDS011;37881;48.024;8.774;2023-04-01T00:21:15;2.17;;;0.80;;
51828;SDS011;37881;48.024;8.774;2023-04-01T00:23:42;2.55;;;1.08;;
51828;SDS011;37881;48.024;8.774;2023-04-01T00:26:08;2.47;;;1.13;;
51828;SDS011;37881;48.024;8.774;2023-04-01T00:28:35;5.70;;;2.78;;
51828;SDS011;37881;48.024;8.774;2023-04-01T00:31:06;2.38;;;1.10;;
51828;SDS011;37881;48.024;8.774;2023-04-01T00:33:33;2.05;;;1.00;;
51828;SDS011;37881;48.024;8.774;2023-04-01T00:36:05;2.00;;;1.10;;
51828;SDS011;37881;48.024;8.774;2023-04-01T00:38:36;1.70;;;1.03;;
51828;SDS011;37881;48.024;8.774;2023-04-01T00:41:03;1.98;;;1.00;;
51828;SDS011;37881;48.024;8.774;2023-04-01T00:43:32;2.47;;;1.15;;
51828;SDS011;37881;48.024;8.774;2023-04-01T00:45:59;2.03;;;0.80;;
51828;SDS011;37881;48.024;8.774;2023-04-01T00:48:27;2.83;;;1.30;;
51828;SDS011;37881;48.024;8.774;2023-04-01T00:51:02;1.90;;;1.00;;
51828;SDS011;37881;48.024;8.774;2023-04-01T00:53:33;3.13;;;1.05;;
51828;SDS011;37881;48.024;8.774;2023-04-01T00:56:03;3.33;;;1.55;;
51828;SDS011;37881;48.024;8.774;2023-04-01T00:58:35;2.33;;;0.90;;
51828;SDS011;37881;48.024;8.774;2023-04-01T01:01:06;1.48;;;0.70;;
51828;SDS011;37881;48.024;8.774;2023-04-01T01:03:35;1.80;;;1.00;;
51828;SDS011;37881;48.024;8.774;2023-04-01T01:08:43;2.38;;;1.10;;
51828;SDS011;37881;48.024;8.774;2023-04-01T01:11:35;2.35;;;1.13;;
51828;SDS011;37881;48.024;8.774;2023-04-01T01:14:10;1.73;;;0.98;;
51828;SDS011;37881;48.024;8.774;2023-04-01T01:16:54;2.03;;;1.00;;
51828;SDS011;37881;48.024;8.774;2023-04-01T01:22:15;1.50;;;0.70;;
51828;SDS011;37881;48.024;8.774;2023-04-01T01:24:59;1.80;;;0.90;;
51828;SDS011;37881;48.024;8.774;2023-04-01T01:27:47;1.65;;;1.02;;
51828;SDS011;37881;48.024;8.774;2023-04-01T01:30:25;1.40;;;0.60;;
51828;SDS011;37881;48.024;8.774;2023-04-01T01:35:37;1.50;;;0.70;;
51828;SDS011;37881;48.024;8.774;2023-04-01T01:38:13;13.20;;;6.30;;
51828;SDS011;37881;48.024;8.774;2023-04-01T01:40:43;1.70;;;1.00;;
51828;SDS011;37881;48.024;8.774;2023-04-01T01:43:12;2.33;;;0.73;;
51828;SDS011;37881;48.024;8.774;2023-04-01T01:45:44;1.60;;;0.70;;
51828;SDS011;37881;48.024;8.774;2023-04-01T01:48:15;1.50;;;0.60;;
51828;SDS011;37881;48.024;8.774;2023-04-01T01:50:44;1.52;;;0.73;;
51828;SDS011;37881;48.024;8.774;2023-04-01T01:53:12;2.53;;;1.08;;
51828;SDS011;37881;48.024;8.774;2023-04-01T01:55:41;1.67;;;0.60;;
51828;SDS011;37881;48.024;8.774;2023-04-01T01:58:16;1.60;;;0.77;;
51828;SDS011;37881;48.024;8.774;2023-04-01T02:01:04;1.80;;;0.80;;
51828;SDS011;37881;48.024;8.774;2023-04-01T02:03:35;2.20;;;1.10;;
51828;SDS011;37881;48.024;8.774;2023-04-01T02:06:04;1.95;;;0.80;;
51828;SDS011;37881;48.024;8.774;2023-04-01T02:08:35;2.63;;;1.00;;
51828;SDS011;37881;48.024;8.774;2023-04-01T02:11:07;2.45;;;0.85;;
51828;SDS011;37881;48.024;8.774;2023-04-01T02:13:58;3.40;;;1.10;;
51828;SDS011;37881;48.024;8.774;2023-04-01T02:16:28;1.98;;;0.95;;
51828;SDS011;37881;48.024;8.774;2023-04-01T02:19:01;3.33;;;1.00;;
51828;SDS011;37881;48.024;8.774;2023-04-01T02:21:33;3.20;;;1.23;;
51828;SDS011;37881;48.024;8.774;2023-04-01T02:24:02;3.90;;;1.00;;
51828;SDS011;37881;48.024;8.774;2023-04-01T02:26:34;2.53;;;1.10;;
51828;SDS011;37881;48.024;8.774;2023-04-01T02:29:01;3.58;;;1.13;;
51828;SDS011;37881;48.024;8.774;2023-04-01T02:31:31;3.10;;;1.30;;
51828;SDS011;37881;48.024;8.774;2023-04-01T02:33:58;3.10;;;1.10;;
51828;SDS011;37881;48.024;8.774;2023-04-01T02:36:26;2.63;;;1.17;;
51828;SDS011;37881;48.024;8.774;2023-04-01T02:38:52;3.05;;;1.10;;
51828;SDS011;37881;48.024;8.774;2023-04-01T02:41:22;3.10;;;1.02;;
51828;SDS011;37881;48.024;8.774;2023-04-01T02:43:48;3.42;;;1.02;;
51828;SDS011;37881;48.024;8.774;2023-04-01T02:46:15;3.10;;;1.33;;
51828;SDS011;37881;48.024;8.774;2023-04-01T02:48:42;2.25;;;0.73;;
51828;SDS011;37881;48.024;8.774;2023-04-01T02:51:08;2.45;;;0.82;;
51828;SDS011;37881;48.024;8.774;2023-04-01T02:53:35;2.70;;;0.90;;
51828;SDS011;37881;48.024;8.774;2023-04-01T02:56:02;2.88;;;1.10;;
51828;SDS011;37881;48.024;8.774;2023-04-01T02:58:29;3.00;;;1.17;;
51828;SDS011;37881;48.024;8.774;2023-04-01T03:00:55;2.03;;;0.80;;
51828;SDS011;37881;48.024;8.774;2023-04-01T03:03:22;2.15;;;0.82;;
51828;SDS011;37881;48.024;8.774;2023-04-01T03:05:49;2.38;;;1.02;;
51828;SDS011;37881;48.024;8.774;2023-04-01T03:08:15;2.15;;;1.08;;
51828;SDS011;37881;48.024;8.774;2023-04-01T03:10:42;2.67;;;0.77;;
51828;SDS011;37881;48.024;8.774;2023-04-01T03:13:09;1.85;;;0.95;;
51828;SDS011;37881;48.024;8.774;2023-04-01T03:15:36;2.10;;;0.65;;
51828;SDS011;37881;48.024;8.774;2023-04-01T03:18:03;1.70;;;0.82;;
51828;SDS011;37881;48.024;8.774;2023-04-01T03:20:30;2.35;;;1.05;;
51828;SDS011;37881;48.024;8.774;2023-04-01T03:22:56;2.00;;;1.13;;
51828;SDS011;37881;48.024;8.774;2023-04-01T03:25:23;2.20;;;0.95;;
51828;SDS011;37881;48.024;8.774;2023-04-01T03:27:50;3.15;;;1.10;;
51828;SDS011;37881;48.024;8.774;2023-04-01T03:30:17;2.25;;;0.70;;
51828;SDS011;37881;48.024;8.774;2023-04-01T03:32:44;2.97;;;1.17;;
51828;SDS011;37881;48.024;8.774;2023-04-01T03:35:11;1.97;;;1.07;;
51828;SDS011;37881;48.024;8.774;2023-04-01T03:37:37;3.20;;;1.02;;
51828;SDS011;37881;48.024;8.774;2023-04-01T03:40:04;2.45;;;1.10;;
51828;SDS011;37881;48.024;8.774;2023-04-01T03:42:31;1.83;;;1.00;;
51828;SDS011;37881;48.024;8.774;2023-04-01T03:44:58;2.55;;;0.90;;
51828;SDS011;37881;48.024;8.774;2023-04-01T03:47:25;1.90;;;0.90;;
51828;SDS011;37881;48.024;8.774;2023-04-01T03:49:52;1.60;;;0.70;;
51828;SDS011;37881;48.024;8.774;2023-04-01T03:52:19;2.67;;;0.80;;
51828;SDS011;37881;48.024;8.774;2023-04-01T03:54:45;1.60;;;0.88;;
51828;SDS011;37881;48.024;8.774;2023-04-01T03:57:12;2.15;;;1.20;;
51828;SDS011;37881;48.024;8.774;2023-04-01T03:59:39;2.27;;;1.00;;
51828;SDS011;37881;48.024;8.774;2023-04-01T04:02:06;1.60;;;0.75;;
51828;SDS011;37881;48.024;8.774;2023-04-01T04:04:33;1.55;;;0.70;;
51828;SDS011;37881;48.024;8.774;2023-04-01T04:07:00;2.47;;;1.08;;
51828;SDS011;37881;48.024;8.774;2023-04-01T04:09:27;2.05;;;1.08;;
51828;SDS011;37881;48.024;8.774;2023-04-01T04:11:56;2.33;;;0.90;;
51828;SDS011;37881;48.024;8.774;2023-04-01T04:14:22;2.00;;;1.00;;
51828;SDS011;37881;48.024;8.774;2023-04-01T04:16:49;4.20;;;1.25;;
51828;SDS011;37881;48.024;8.774;2023-04-01T04:19:16;2.60;;;0.90;;
51828;SDS011;37881;48.024;8.774;2023-04-01T04:21:43;2.10;;;0.93;;
51828;SDS011;37881;48.024;8.774;2023-04-01T04:24:09;3.17;;;0.90;;
51828;SDS011;37881;48.024;8.774;2023-04-01T04:26:36;3.63;;;1.00;;
51828;SDS011;37881;48.024;8.774;2023-04-01T04:29:03;3.10;;;0.95;;
51828;SDS011;37881;48.024;8.774;2023-04-01T04:31:30;4.13;;;1.13;;
51828;SDS011;37881;48.024;8.774;2023-04-01T04:33:58;3.65;;;1.05;;
51828;SDS011;37881;48.024;8.774;2023-04-01T04:36:26;3.83;;;1.13;;
51828;SDS011;37881;48.024;8.774;2023-04-01T04:38:52;4.03;;;1.42;;
51828;SDS011;37881;48.024;8.774;2023-04-01T04:41:19;3.25;;;0.98;;
51828;SDS011;37881;48.024;8.774;2023-04-01T04:43:51;2.80;;;1.13;;
51828;SDS011;37881;48.024;8.774;2023-04-01T04:46:20;2.63;;;1.08;;
51828;SDS011;37881;48.024;8.774;2023-04-01T04:48:48;5.03;;;1.30;;
51828;SDS011;37881;48.024;8.774;2023-04-01T04:51:15;2.17;;;0.70;;
51828;SDS011;37881;48.024;8.774;2023-04-01T04:53:43;3.33;;;1.30;;
51828;SDS011;37881;48.024;8.774;2023-04-01T04:56:10;3.45;;;1.00;;
51828;SDS011;37881;48.024;8.774;2023-04-01T04:58:38;2.10;;;1.10;;
51828;SDS011;37881;48.024;8.774;2023-04-01T05:01:06;3.33;;;1.33;;
51828;SDS011;37881;48.024;8.774;2023-04-01T05:03:37;2.25;;;0.90;;
51828;SDS011;37881;48.024;8.774;2023-04-01T05:06:05;1.75;;;0.95;;
51828;SDS011;37881;48.024;8.774;2023-04-01T05:08:32;2.78;;;1.00;;
51828;SDS011;37881;48.024;8.774;2023-04-01T05:11:00;1.98;;;1.17;;
51828;SDS011;37881;48.024;8.774;2023-04-01T05:13:27;2.10;;;0.87;;
51828;SDS011;37881;48.024;8.774;2023-04-01T05:15:55;2.10;;;0.82;;
51828;SDS011;37881;48.024;8.774;2023-04-01T05:18:21;2.53;;;1.13;;
51828;SDS011;37881;48.024;8.774;2023-04-01T05:20:50;1.80;;;1.00;;
51828;SDS011;37881;48.024;8.774;2023-04-01T05:23:18;2.05;;;1.33;;
51828;SDS011;37881;48.024;8.774;2023-04-01T05:25:48;1.87;;;0.87;;
51828;SDS011;37881;48.024;8.774;2023-04-01T05:28:16;2.45;;;0.90;;
51828;SDS011;37881;48.024;8.774;2023-04-01T05:30:43;3.15;;;1.30;;
51828;SDS011;37881;48.024;8.774;2023-04-01T05:33:10;2.00;;;1.02;;
51828;SDS011;37881;48.024;8.774;2023-04-01T05:35:39;2.63;;;0.90;;
51828;SDS011;37881;48.024;8.774;2023-04-01T05:38:06;1.87;;;0.87;;
51828;SDS011;37881;48.024;8.774;2023-04-01T05:40:33;2.42;;;0.90;;
51828;SDS011;37881;48.024;8.774;2023-04-01T05:43:00;2.15;;;1.13;;
51828;SDS011;37881;48.024;8.774;2023-04-01T05:45:27;1.70;;;0.82;;
51828;SDS011;37881;48.024;8.774;2023-04-01T05:47:54;1.90;;;1.00;;
51828;SDS011;37881;48.024;8.774;2023-04-01T05:50:21;1.70;;;0.80;;
51828;SDS011;37881;48.024;8.774;2023-04-01T05:52:47;2.47;;;0.85;;
51828;SDS011;37881;48.024;8.774;2023-04-01T05:55:14;2.72;;;0.95;;
51828;SDS011;37881;48.024;8.774;2023-04-01T05:57:41;3.28;;;1.35;;
51828;SDS011;37881;48.024;8.774;2023-04-01T06:00:08;3.65;;;1.20;;
51828;SDS011;37881;48.024;8.774;2023-04-01T06:02:35;1.80;;;0.90;;
51828;SDS011;37881;48.024;8.774;2023-04-01T06:05:20;2.60;;;1.00;;
51828;SDS011;37881;48.024;8.774;2023-04-01T06:07:49;2.65;;;1.33;;
51828;SDS011;37881;48.024;8.774;2023-04-01T06:10:22;2.80;;;1.30;;
51828;SDS011;37881;48.024;8.774;2023-04-01T06:13:05;5.50;;;1.40;;
51828;SDS011;37881;48.024;8.774;2023-04-01T06:15:40;4.27;;;1.93;;
51828;SDS011;37881;48.024;8.774;2023-04-01T06:34:17;3.30;;;1.65;;
51828;SDS011;37881;48.024;8.774;2023-04-01T06:42:29;2.90;;;1.00;;
51828;SDS011;37881;48.024;8.774;2023-04-01T06:51:59;5.88;;;3.17;;
51828;SDS011;37881;48.024;8.774;2023-04-01T06:56:45;9.00;;;4.17;;
51828;SDS011;37881;48.024;8.774;2023-04-01T06:59:18;14.23;;;5.78;;
51828;SDS011;37881;48.024;8.774;2023-04-01T07:02:01;2.20;;;1.17;;
51828;SDS011;37881;48.024;8.774;2023-04-01T07:04:43;5.47;;;3.00;;
51828;SDS011;37881;48.024;8.774;2023-04-01T07:07:21;16.38;;;7.78;;
51828;SDS011;37881;48.024;8.774;2023-04-01T07:09:56;6.53;;;3.10;;
51828;SDS011;37881;48.024;8.774;2023-04-01T07:14:59;9.00;;;4.70;;
51828;SDS011;37881;48.024;8.774;2023-04-01T07:17:31;7.82;;;3.47;;
51828;SDS011;37881;48.024;8.774;2023-04-01T07:22:44;7.00;;;3.47;;
51828;SDS011;37881;48.024;8.774;2023-04-01T07:27:52;9.80;;;5.80;;
51828;SDS011;37881;48.024;8.774;2023-04-01T07:30:22;5.80;;;3.33;;
51828;SDS011;37881;48.024;8.774;2023-04-01T07:35:37;6.00;;;3.70;;
51828;SDS011;37881;48.024;8.774;2023-04-01T07:38:14;5.80;;;3.35;;
51828;SDS011;37881;48.024;8.774;2023-04-01T07:41:12;6.10;;;3.05;;
51828;SDS011;37881;48.024;8.774;2023-04-01T07:44:06;4.75;;;2.15;;
51828;SDS011;37881;48.024;8.774;2023-04-01T07:46:59;4.22;;;2.70;;
51828;SDS011;37881;48.024;8.774;2023-04-01T07:52:03;7.82;;;5.35;;
51828;SDS011;37881;48.024;8.774;2023-04-01T07:54:35;4.88;;;2.97;;
51828;SDS011;37881;48.024;8.774;2023-04-01T08:05:04;4.55;;;2.58;;
51828;SDS011;37881;48.024;8.774;2023-04-01T08:10:40;5.82;;;3.42;;
51828;SDS011;37881;48.024;8.774;2023-04-01T08:21:51;3.30;;;1.48;;
51828;SDS011;37881;48.024;8.774;2023-04-01T08:24:25;3.70;;;1.83;;
51828;SDS011;37881;48.024;8.774;2023-04-01T08:27:09;1.95;;;1.00;;
51828;SDS011;37881;48.024;8.774;2023-04-01T08:32:30;3.00;;;1.40;;
51828;SDS011;37881;48.024;8.774;2023-04-01T08:35:07;5.47;;;3.20;;
51828;SDS011;37881;48.024;8.774;2023-04-01T08:37:52;3.90;;;2.70;;
51828;SDS011;37881;48.024;8.774;2023-04-01T08:40:32;3.95;;;1.80;;
51828;SDS011;37881;48.024;8.774;2023-04-01T08:49:07;4.85;;;3.67;;
51828;SDS011;37881;48.024;8.774;2023-04-01T09:00:36;4.80;;;2.30;;
51828;SDS011;37881;48.024;8.774;2023-04-01T09:11:58;9.80;;;5.10;;
51828;SDS011;37881;48.024;8.774;2023-04-01T09:26:42;4.77;;;3.20;;
51828;SDS011;37881;48.024;8.774;2023-04-01T09:35:25;2.55;;;1.23;;
51828;SDS011;37881;48.024;8.774;2023-04-01T09:48:40;2.90;;;1.95;;
51828;SDS011;37881;48.024;8.774;2023-04-01T09:57:02;3.35;;;1.80;;
51828;SDS011;37881;48.024;8.774;2023-04-01T10:08:37;2.43;;;0.90;;
51828;SDS011;37881;48.024;8.774;2023-04-01T10:26:25;1.92;;;0.80;;
51828;SDS011;37881;48.024;8.774;2023-04-01T10:35:02;2.47;;;1.50;;
51828;SDS011;37881;48.024;8.774;2023-04-01T10:54:47;1.70;;;0.77;;
51828;SDS011;37881;48.024;8.774;2023-04-01T10:57:45;2.28;;;1.00;;
51828;SDS011;37881;48.024;8.774;2023-04-01T11:00:45;2.00;;;0.90;;
51828;SDS011;37881;48.024;8.774;2023-04-01T11:11:49;2.05;;;1.00;;
51828;SDS011;37881;48.024;8.774;2023-04-01T11:18:09;2.00;;;1.00;;
51828;SDS011;37881;48.024;8.774;2023-04-01T11:20:38;2.20;;;1.20;;
51828;SDS011;37881;48.024;8.774;2023-04-01T11:25:52;2.20;;;1.00;;
51828;SDS011;37881;48.024;8.774;2023-04-01T11:34:13;2.50;;;0.97;;
51828;SDS011;37881;48.024;8.774;2023-04-01T11:45:06;2.35;;;1.02;;
51828;SDS011;37881;48.024;8.774;2023-04-01T11:50:20;1.90;;;1.05;;
51828;SDS011;37881;48.024;8.774;2023-04-01T11:53:02;1.90;;;1.00;;
51828;SDS011;37881;48.024;8.774;2023-04-01T12:06:16;2.67;;;0.90;;
51828;SDS011;37881;48.024;8.774;2023-04-01T12:11:41;2.88;;;1.00;;
51828;SDS011;37881;48.024;8.774;2023-04-01T12:22:58;1.60;;;0.70;;
51828;SDS011;37881;48.024;8.774;2023-04-01T12:25:45;1.80;;;1.02;;
51828;SDS011;37881;48.024;8.774;2023-04-01T12:34:29;1.45;;;0.65;;
51828;SDS011;37881;48.024;8.774;2023-04-01T12:37:10;1.98;;;0.68;;
51828;SDS011;37881;48.024;8.774;2023-04-01T13:05:23;1.60;;;0.50;;
51828;SDS011;37881;48.024;8.774;2023-04-01T13:08:14;1.50;;;0.73;;
51828;SDS011;37881;48.024;8.774;2023-04-01T13:10:58;1.63;;;0.80;;
51828;SDS011;37881;48.024;8.774;2023-04-01T13:17:42;1.65;;;0.80;;
51828;SDS011;37881;48.024;8.774;2023-04-01T13:20:06;1.70;;;0.80;;
51828;SDS011;37881;48.024;8.774;2023-04-01T13:28:11;1.80;;;0.85;;
51828;SDS011;37881;48.024;8.774;2023-04-01T13:33:31;1.70;;;0.80;;
51828;SDS011;37881;48.024;8.774;2023-04-01T13:38:58;1.73;;;0.77;;
51828;SDS011;37881;48.024;8.774;2023-04-01T13:44:42;1.75;;;0.85;;
51828;SDS011;37881;48.024;8.774;2023-04-01T13:47:23;1.80;;;0.65;;
51828;SDS011;37881;48.024;8.774;2023-04-01T13:52:54;1.60;;;0.80;;
51828;SDS011;37881;48.024;8.774;2023-04-01T14:01:37;1.75;;;0.77;;
51828;SDS011;37881;48.024;8.774;2023-04-01T14:12:15;1.83;;;0.85;;
51828;SDS011;37881;48.024;8.774;2023-04-01T14:15:00;2.40;;;0.80;;
51828;SDS011;37881;48.024;8.774;2023-04-01T14:23:30;1.90;;;0.88;;
51828;SDS011;37881;48.024;8.774;2023-04-01T14:29:12;1.90;;;0.90;;
51828;SDS011;37881;48.024;8.774;2023-04-01T14:31:51;2.90;;;1.67;;
51828;SDS011;37881;48.024;8.774;2023-04-01T14:51:08;2.00;;;0.90;;
51828;SDS011;37881;48.024;8.774;2023-04-01T14:53:37;2.40;;;1.05;;
51828;SDS011;37881;48.024;8.774;2023-04-01T14:56:11;1.90;;;0.95;;
51828;SDS011;37881;48.024;8.774;2023-04-01T14:58:45;2.75;;;1.17;;
51828;SDS011;37881;48.024;8.774;2023-04-01T15:12:18;2.70;;;1.48;;
51828;SDS011;37881;48.024;8.774;2023-04-01T15:15:22;2.50;;;1.30;;
51828;SDS011;37881;48.024;8.774;2023-04-01T15:21:13;1.85;;;0.90;;
51828;SDS011;37881;48.024;8.774;2023-04-01T15:26:47;3.33;;;1.40;;
51828;SDS011;37881;48.024;8.774;2023-04-01T15:34:51;2.70;;;1.40;;
51828;SDS011;37881;48.024;8.774;2023-04-01T15:37:50;3.35;;;1.30;;
51828;SDS011;37881;48.024;8.774;2023-04-01T15:40:24;4.22;;;1.90;;
51828;SDS011;37881;48.024;8.774;2023-04-01T15:43:24;3.10;;;1.50;;
51828;SDS011;37881;48.024;8.774;2023-04-01T15:49:26;3.42;;;1.38;;
51828;SDS011;37881;48.024;8.774;2023-04-01T15:52:07;1.88;;;1.00;;
51828;SDS011;37881;48.024;8.774;2023-04-01T16:00:06;3.85;;;1.30;;
51828;SDS011;37881;48.024;8.774;2023-04-01T16:08:19;3.20;;;1.45;;
51828;SDS011;37881;48.024;8.774;2023-04-01T16:16:21;3.33;;;1.35;;
51828;SDS011;37881;48.024;8.774;2023-04-01T16:32:35;2.10;;;1.20;;
51828;SDS011;37881;48.024;8.774;2023-04-01T16:35:22;7.80;;;2.78;;
51828;SDS011;37881;48.024;8.774;2023-04-01T16:37:54;3.53;;;1.80;;
51828;SDS011;37881;48.024;8.774;2023-04-01T16:43:35;2.78;;;1.50;;
51828;SDS011;37881;48.024;8.774;2023-04-01T16:54:18;2.88;;;0.93;;
51828;SDS011;37881;48.024;8.774;2023-04-01T16:56:56;2.40;;;1.00;;
51828;SDS011;37881;48.024;8.774;2023-04-01T17:00:17;2.10;;;1.00;;
51828;SDS011;37881;48.024;8.774;2023-04-01T17:02:30;2.20;;;1.25;;
51828;SDS011;37881;48.024;8.774;2023-04-01T17:05:05;2.20;;;1.00;;
51828;SDS011;37881;48.024;8.774;2023-04-01T17:08:44;2.60;;;1.60;;
51828;SDS011;37881;48.024;8.774;2023-04-01T17:10:54;3.60;;;1.67;;
51828;SDS011;37881;48.024;8.774;2023-04-01T17:35:35;2.70;;;1.42;;
51828;SDS011;37881;48.024;8.774;2023-04-01T17:44:33;2.08;;;1.27;;
51828;SDS011;37881;48.024;8.774;2023-04-01T17:49:42;6.55;;;3.63;;
51828;SDS011;37881;48.024;8.774;2023-04-01T17:52:22;4.20;;;2.40;;
51828;SDS011;37881;48.024;8.774;2023-04-01T18:00:24;3.40;;;2.23;;
51828;SDS011;37881;48.024;8.774;2023-04-01T18:23:00;6.72;;;2.70;;
51828;SDS011;37881;48.024;8.774;2023-04-01T18:25:40;6.40;;;3.20;;
51828;SDS011;37881;48.024;8.774;2023-04-01T18:33:40;11.05;;;6.18;;
51828;SDS011;37881;48.024;8.774;2023-04-01T18:36:19;7.82;;;3.97;;
51828;SDS011;37881;48.024;8.774;2023-04-01T18:38:57;7.65;;;3.65;;
51828;SDS011;37881;48.024;8.774;2023-04-01T18:41:44;9.73;;;5.00;;
51828;SDS011;37881;48.024;8.774;2023-04-01T18:44:24;8.60;;;4.20;;
51828;SDS011;37881;48.024;8.774;2023-04-01T18:46:58;8.93;;;5.20;;
51828;SDS011;37881;48.024;8.774;2023-04-01T18:49:50;7.95;;;4.45;;
51828;SDS011;37881;48.024;8.774;2023-04-01T18:58:14;7.53;;;4.50;;
51828;SDS011;37881;48.024;8.774;2023-04-01T19:01:04;5.72;;;3.47;;
51828;SDS011;37881;48.024;8.774;2023-04-01T19:06:48;8.30;;;4.80;;
51828;SDS011;37881;48.024;8.774;2023-04-01T19:09:20;8.23;;;4.30;;
51828;SDS011;37881;48.024;8.774;2023-04-01T19:15:09;14.13;;;8.85;;
51828;SDS011;37881;48.024;8.774;2023-04-01T19:17:58;9.75;;;6.70;;
51828;SDS011;37881;48.024;8.774;2023-04-01T19:26:23;8.73;;;4.50;;
51828;SDS011;37881;48.024;8.774;2023-04-01T19:28:56;9.30;;;5.13;;
51828;SDS011;37881;48.024;8.774;2023-04-01T19:32:07;13.32;;;7.40;;
51828;SDS011;37881;48.024;8.774;2023-04-01T19:37:39;12.87;;;6.67;;
51828;SDS011;37881;48.024;8.774;2023-04-01T19:51:19;6.90;;;3.80;;
51828;SDS011;37881;48.024;8.774;2023-04-01T19:57:00;9.40;;;4.70;;
51828;SDS011;37881;48.024;8.774;2023-04-01T19:59:45;8.23;;;3.72;;
51828;SDS011;37881;48.024;8.774;2023-04-01T20:08:31;8.75;;;4.78;;
51828;SDS011;37881;48.024;8.774;2023-04-01T20:16:21;14.35;;;7.43;;
51828;SDS011;37881;48.024;8.774;2023-04-01T20:18:51;9.80;;;5.43;;
51828;SDS011;37881;48.024;8.774;2023-04-01T20:26:46;12.10;;;5.80;;
51828;SDS011;37881;48.024;8.774;2023-04-01T20:32:17;7.70;;;3.60;;
51828;SDS011;37881;48.024;8.774;2023-04-01T20:38:06;13.32;;;7.68;;
51828;SDS011;37881;48.024;8.774;2023-04-01T20:40:45;11.27;;;6.07;;
51828;SDS011;37881;48.024;8.774;2023-04-01T20:49:15;8.00;;;4.10;;
51828;SDS011;37881;48.024;8.774;2023-04-01T20:51:58;7.55;;;4.32;;
51828;SDS011;37881;48.024;8.774;2023-04-01T21:06:10;8.52;;;4.22;;
51828;SDS011;37881;48.024;8.774;2023-04-01T21:20:14;4.60;;;3.00;;
51828;SDS011;37881;48.024;8.774;2023-04-01T21:25:22;9.07;;;4.28;;
51828;SDS011;37881;48.024;8.774;2023-04-01T21:39:06;6.40;;;3.50;;
51828;SDS011;37881;48.024;8.774;2023-04-01T22:04:49;8.10;;;3.83;;
51828;SDS011;37881;48.024;8.774;2023-04-01T22:07:37;6.53;;;3.58;;
51828;SDS011;37881;48.024;8.774;2023-04-01T22:10:23;12.43;;;6.17;;
51828;SDS011;37881;48.024;8.774;2023-04-01T22:13:46;10.93;;;5.10;;
51828;SDS011;37881;48.024;8.774;2023-04-01T22:18:56;5.28;;;2.80;;
51828;SDS011;37881;48.024;8.774;2023-04-01T22:21:48;7.22;;;3.15;;
51828;SDS011;37881;48.024;8.774;2023-04-01T22:24:33;6.90;;;4.37;;
51828;SDS011;37881;48.024;8.774;2023-04-01T22:32:48;3.58;;;2.00;;
51828;SDS011;37881;48.024;8.774;2023-04-01T22:35:23;4.35;;;2.28;;
51828;SDS011;37881;48.024;8.774;2023-04-01T22:40:58;4.60;;;2.22;;
51828;SDS011;37881;48.024;8.774;2023-04-01T22:43:39;5.10;;;2.42;;
51828;SDS011;37881;48.024;8.774;2023-04-01T22:48:57;6.25;;;3.40;;
51828;SDS011;37881;48.024;8.774;2023-04-01T22:51:40;6.13;;;3.37;;
51828;SDS011;37881;48.024;8.774;2023-04-01T22:54:19;6.93;;;3.03;;
51828;SDS011;37881;48.024;8.774;2023-04-01T22:56:52;6.13;;;2.92;;
51828;SDS011;37881;48.024;8.774;2023-04-01T23:02:23;9.70;;;4.80;;
51828;SDS011;37881;48.024;8.774;2023-04-01T23:04:58;8.00;;;4.10;;
51828;SDS011;37881;48.024;8.774;2023-04-01T23:10:25;8.10;;;4.70;;
51828;SDS011;37881;48.024;8.774;2023-04-01T23:13:04;8.45;;;4.47;;
51828;SDS011;37881;48.024;8.774;2023-04-01T23:15:40;8.63;;;4.35;;
51828;SDS011;37881;48.024;8.774;2023-04-01T23:26:32;8.00;;;3.70;;
51828;SDS011;37881;48.024;8.774;2023-04-01T23:29:11;7.78;;;3.75;;
51828;SDS011;37881;48.024;8.774;2023-04-01T23:31:41;5.60;;;3.47;;
51828;SDS011;37881;48.024;8.774;2023-04-01T23:36:43;19.85;;;11.40;;
51828;SDS011;37881;48.024;8.774;2023-04-01T23:39:26;8.63;;;5.28;;
51828;SDS011;37881;48.024;8.774;2023-04-01T23:42:01;9.85;;;3.83;;
51828;SDS011;37881;48.024;8.774;2023-04-01T23:44:31;5.43;;;2.80;;
51828;SDS011;37881;48.024;8.774;2023-04-01T23:47:00;5.68;;;2.83;;
51828;SDS011;37881;48.024;8.774;2023-04-01T23:49:30;6.65;;;3.20;;
51828;SDS011;37881;48.024;8.774;2023-04-01T23:55:08;7.05;;;2.70;;
51828;SDS011;37881;48.024;8.774;2023-04-01T23:57:38;8.80;;;3.13;;
